createdAt,value
2022-12-18T00:02:02.788Z,-11.73
2022-12-18T00:04:30.727Z,-11.82
2022-12-18T00:06:57.466Z,-11.81
2022-12-18T00:09:25.209Z,-11.76
2022-12-18T00:11:58.054Z,-11.64
2022-12-18T00:14:24.770Z,-11.64
2022-12-18T00:16:51.618Z,-11.54
2022-12-18T00:19:19.629Z,-11.61
2022-12-18T00:21:46.680Z,-11.64
2022-12-18T00:24:16.224Z,-11.68
2022-12-18T00:26:43.237Z,-11.72
2022-12-18T00:29:14.693Z,-11.76
2022-12-18T00:31:44.212Z,-11.71
2022-12-18T00:34:15.427Z,-11.83
2022-12-18T00:36:44.318Z,-11.80
2022-12-18T00:39:12.040Z,-11.93
2022-12-18T00:41:57.442Z,-11.89
2022-12-18T00:44:24.133Z,-11.78
2022-12-18T00:46:50.895Z,-11.71
2022-12-18T00:49:18.927Z,-11.80
2022-12-18T00:51:48.365Z,-11.75
2022-12-18T00:54:15.387Z,-11.75
2022-12-18T00:56:50.074Z,-11.68
2022-12-18T00:59:17.571Z,-11.80
2022-12-18T01:01:44.508Z,-11.74
2022-12-18T01:04:12.632Z,-11.72
2022-12-18T01:06:39.303Z,-11.81
2022-12-18T01:09:08.224Z,-7.26
2022-12-18T01:11:35.017Z,-7.52
2022-12-18T01:14:01.893Z,-9.44
2022-12-18T01:16:28.918Z,-10.08
2022-12-18T01:18:56.155Z,-10.67
2022-12-18T01:21:25.089Z,-10.91
2022-12-18T01:23:56.439Z,-11.27
2022-12-18T01:26:26.146Z,-11.47
2022-12-18T01:28:54.779Z,-11.54
2022-12-18T01:31:23.684Z,-11.64
2022-12-18T01:33:51.550Z,-11.72
2022-12-18T01:36:20.285Z,-11.72
2022-12-18T01:38:48.363Z,-11.82
2022-12-18T01:41:15.656Z,-11.84
2022-12-18T01:43:46.285Z,-11.78
2022-12-18T01:46:13.191Z,-11.81
2022-12-18T01:48:40.780Z,-11.74
2022-12-18T01:51:10.560Z,-11.82
2022-12-18T01:53:38.396Z,-11.80
2022-12-18T01:56:05.819Z,-11.91
2022-12-18T01:58:41.570Z,-11.96
2022-12-18T02:01:10.251Z,-11.99
2022-12-18T02:03:37.657Z,-12.07
2022-12-18T02:06:11.644Z,-12.04
2022-12-18T02:08:42.621Z,-12.08
2022-12-18T02:11:16.289Z,-12.06
2022-12-18T02:13:47.028Z,-11.99
2022-12-18T02:16:22.667Z,-12.05
2022-12-18T02:18:55.124Z,-12.06
2022-12-18T02:21:31.751Z,-12.12
2022-12-18T02:24:17.586Z,-12.21
2022-12-18T02:26:49.861Z,-12.21
2022-12-18T02:29:21.474Z,-12.29
2022-12-18T02:31:52.856Z,-12.33
2022-12-18T02:34:22.364Z,-12.34
2022-12-18T02:36:50.868Z,-12.34
2022-12-18T02:39:18.736Z,-12.25
2022-12-18T02:41:47.765Z,-12.30
2022-12-18T02:44:15.424Z,-12.30
2022-12-18T02:46:45.074Z,-12.32
2022-12-18T02:49:23.774Z,-12.36
2022-12-18T02:51:54.763Z,-12.32
2022-12-18T02:54:32.977Z,-12.38
2022-12-18T02:57:10.709Z,-12.41
2022-12-18T02:59:43.087Z,-12.49
2022-12-18T03:02:21.816Z,-12.43
2022-12-18T03:04:57.472Z,-12.44
2022-12-18T03:07:40.171Z,-12.45
2022-12-18T03:10:09.867Z,-12.47
2022-12-18T03:12:42.025Z,-12.44
2022-12-18T03:15:17.439Z,-12.53
2022-12-18T03:17:50.306Z,-12.51
2022-12-18T03:20:22.624Z,-12.45
2022-12-18T03:22:54.532Z,-12.49
2022-12-18T03:25:22.513Z,-12.48
2022-12-18T03:27:57.381Z,-12.45
2022-12-18T03:30:24.422Z,-12.57
2022-12-18T03:33:00.359Z,-12.53
2022-12-18T03:35:34.806Z,-12.51
2022-12-18T03:38:01.756Z,-12.53
2022-12-18T03:40:36.315Z,-12.49
2022-12-18T03:43:11.357Z,-12.51
2022-12-18T03:45:42.930Z,-12.53
2022-12-18T03:48:18.663Z,-12.57
2022-12-18T03:50:50.526Z,-12.66
2022-12-18T03:53:29.952Z,-12.69
2022-12-18T03:55:58.593Z,-12.69
2022-12-18T03:58:28.191Z,-12.73
2022-12-18T04:00:58.055Z,-12.76
2022-12-18T04:03:26.924Z,-12.70
2022-12-18T04:05:56.455Z,-12.77
2022-12-18T04:08:24.907Z,-12.82
2022-12-18T04:10:51.588Z,-12.78
2022-12-18T04:13:23.068Z,-12.75
2022-12-18T04:15:51.253Z,-12.78
2022-12-18T04:18:17.937Z,-12.82
2022-12-18T04:20:44.537Z,-12.81
2022-12-18T04:23:11.193Z,-12.77
2022-12-18T04:25:37.953Z,-12.75
2022-12-18T04:28:04.827Z,-12.83
2022-12-18T04:30:31.512Z,-12.77
2022-12-18T04:32:59.623Z,-12.78
2022-12-18T04:35:26.338Z,-12.79
2022-12-18T04:37:53.087Z,-12.72
2022-12-18T04:40:19.810Z,-12.79
2022-12-18T04:42:46.561Z,-12.83
2022-12-18T04:45:13.311Z,-12.84
2022-12-18T04:47:40.025Z,-12.80
2022-12-18T04:50:08.839Z,-12.81
2022-12-18T04:52:35.427Z,-12.80
2022-12-18T04:55:02.102Z,-12.80
2022-12-18T04:57:28.888Z,-12.77
2022-12-18T04:59:55.619Z,-12.89
2022-12-18T05:02:22.389Z,-12.87
2022-12-18T05:04:49.118Z,-12.83
2022-12-18T05:07:17.248Z,-12.81
2022-12-18T05:09:43.926Z,-12.76
2022-12-18T05:12:11.788Z,-12.74
2022-12-18T05:14:38.458Z,-12.69
2022-12-18T05:17:05.132Z,-12.68
2022-12-18T05:19:31.696Z,-12.57
2022-12-18T05:21:58.592Z,-12.41
2022-12-18T05:24:26.641Z,-12.36
2022-12-18T05:26:53.327Z,-12.35
2022-12-18T05:29:19.990Z,-12.31
2022-12-18T05:31:46.623Z,-12.26
2022-12-18T05:34:13.538Z,-12.34
2022-12-18T05:36:40.773Z,-12.37
2022-12-18T05:39:08.024Z,-12.32
2022-12-18T05:41:36.115Z,-12.21
2022-12-18T05:44:02.950Z,-12.11
2022-12-18T05:46:30.491Z,-12.04
2022-12-18T05:49:00.743Z,-12.06
2022-12-18T05:51:27.943Z,-11.72
2022-12-18T05:53:54.652Z,-11.61
2022-12-18T05:56:22.922Z,-11.49
2022-12-18T05:58:54.968Z,-11.12
2022-12-18T06:01:23.896Z,-10.45
2022-12-18T06:03:50.657Z,-9.98
2022-12-18T06:06:19.977Z,-10.21
2022-12-18T06:08:47.342Z,-10.59
2022-12-18T06:11:14.306Z,-10.89
2022-12-18T06:13:41.234Z,-11.07
2022-12-18T06:16:09.600Z,-10.06
2022-12-18T06:18:39.498Z,-9.74
2022-12-18T06:21:06.458Z,-9.80
2022-12-18T06:23:39.225Z,-9.50
2022-12-18T06:26:06.915Z,-8.81
2022-12-18T06:28:33.484Z,-8.42
2022-12-18T06:31:00.187Z,-8.04
2022-12-18T06:33:29.211Z,-7.79
2022-12-18T06:36:01.171Z,-7.70
2022-12-18T06:38:28.188Z,-7.61
2022-12-18T06:40:54.818Z,-7.49
2022-12-18T06:43:21.480Z,-7.40
2022-12-18T06:45:53.577Z,-7.32
2022-12-18T06:48:20.902Z,-7.40
2022-12-18T06:50:49.018Z,-7.33
2022-12-18T06:53:15.764Z,-7.33
2022-12-18T06:55:42.420Z,-7.37
2022-12-18T06:58:09.344Z,-7.36
2022-12-18T07:00:38.165Z,-7.40
2022-12-18T07:03:04.944Z,-7.40
2022-12-18T07:05:31.760Z,-7.40
2022-12-18T07:08:00.015Z,-7.47
2022-12-18T07:10:27.295Z,-7.41
2022-12-18T07:12:53.973Z,-7.32
2022-12-18T07:15:20.686Z,-7.34
2022-12-18T07:17:47.686Z,-7.26
2022-12-18T07:20:14.323Z,-7.11
2022-12-18T07:22:41.025Z,-7.14
2022-12-18T07:25:09.720Z,-7.11
2022-12-18T07:27:36.392Z,-7.10
2022-12-18T07:30:03.600Z,-7.01
2022-12-18T07:32:31.516Z,-7.03
2022-12-18T07:34:58.090Z,-7.03
2022-12-18T07:37:24.709Z,-6.97
2022-12-18T07:39:51.275Z,-6.86
2022-12-18T07:42:31.480Z,-6.73
2022-12-18T07:44:58.380Z,-6.70
2022-12-18T07:47:25.961Z,-6.84
2022-12-18T07:49:52.705Z,-6.83
2022-12-18T07:52:24.302Z,-6.79
2022-12-18T07:54:52.850Z,-6.82
2022-12-18T07:57:49.022Z,-6.85
2022-12-18T08:00:09.034Z,-6.99
2022-12-18T08:02:35.729Z,-7.06
2022-12-18T08:05:02.595Z,-7.07
2022-12-18T08:07:29.225Z,-7.04
2022-12-18T08:09:55.867Z,-6.99
2022-12-18T08:12:24.073Z,-6.91
2022-12-18T08:14:50.732Z,-6.82
2022-12-18T08:17:17.405Z,-6.72
2022-12-18T08:19:44.531Z,-6.66
2022-12-18T08:22:11.121Z,-6.59
2022-12-18T08:24:37.821Z,-6.58
2022-12-18T08:29:52.770Z,-6.50
2022-12-18T08:32:19.702Z,-6.50
2022-12-18T08:34:46.402Z,-6.41
2022-12-18T08:37:13.464Z,-6.34
2022-12-18T08:39:40.076Z,-6.20
2022-12-18T08:42:25.565Z,-6.19
2022-12-18T08:44:53.591Z,-6.18
2022-12-18T08:47:20.291Z,-6.04
2022-12-18T08:49:47.021Z,-6.00
2022-12-18T08:52:13.849Z,-6.02
2022-12-18T08:54:40.477Z,-5.99
2022-12-18T08:57:07.689Z,-5.97
2022-12-18T08:59:34.531Z,-5.92
2022-12-18T09:02:02.800Z,-5.90
2022-12-18T09:04:29.601Z,-5.94
2022-12-18T09:06:56.273Z,-5.95
2022-12-18T09:09:22.987Z,-6.00
2022-12-18T09:11:51.934Z,-6.02
2022-12-18T09:14:18.777Z,-6.02
2022-12-18T09:16:45.628Z,-5.92
2022-12-18T09:19:13.803Z,-5.92
2022-12-18T09:21:46.091Z,-5.92
2022-12-18T09:24:15.597Z,-5.92
2022-12-18T09:26:43.465Z,-5.94
2022-12-18T09:29:14.501Z,-5.83
2022-12-18T09:31:41.642Z,-5.78
2022-12-18T09:34:08.637Z,-5.67
2022-12-18T09:36:36.807Z,-5.55
2022-12-18T09:39:08.126Z,-5.38
2022-12-18T09:41:45.181Z,-5.45
2022-12-18T09:44:18.336Z,-5.41
2022-12-18T09:46:51.274Z,-5.39
2022-12-18T09:49:22.967Z,-5.26
2022-12-18T09:51:55.699Z,-5.35
2022-12-18T09:54:26.471Z,-5.32
2022-12-18T09:56:54.268Z,-5.33
2022-12-18T09:59:25.748Z,-5.20
2022-12-18T10:01:52.687Z,-5.28
2022-12-18T10:04:19.795Z,-5.24
2022-12-18T10:06:54.137Z,-5.27
2022-12-18T10:09:28.221Z,-5.34
2022-12-18T10:12:04.556Z,-5.17
2022-12-18T10:14:42.017Z,-5.15
2022-12-18T10:17:19.720Z,-5.00
2022-12-18T10:19:51.769Z,-5.09
2022-12-18T10:22:36.876Z,-4.99
2022-12-18T10:25:18.024Z,-5.23
2022-12-18T10:27:44.958Z,-5.13
2022-12-18T10:30:15.864Z,-5.07
2022-12-18T10:32:45.895Z,-5.37
2022-12-18T10:35:20.039Z,-5.35
2022-12-18T10:38:22.581Z,-5.43
2022-12-18T10:40:52.209Z,-5.29
2022-12-18T10:43:24.286Z,-5.30
2022-12-18T10:46:06.557Z,-5.35
2022-12-18T10:48:37.423Z,-5.44
2022-12-18T10:51:13.333Z,-5.29
2022-12-18T10:53:45.504Z,-5.46
2022-12-18T10:56:13.220Z,-5.57
2022-12-18T10:58:41.096Z,-5.61
2022-12-18T11:01:11.827Z,-5.80
2022-12-18T11:03:41.997Z,-5.81
2022-12-18T11:06:12.020Z,-5.67
2022-12-18T11:08:39.720Z,-5.78
2022-12-18T11:11:21.161Z,-5.80
2022-12-18T11:13:58.519Z,-5.71
2022-12-18T11:16:28.630Z,-5.71
2022-12-18T11:18:56.699Z,-5.98
2022-12-18T11:21:23.689Z,-6.12
2022-12-18T11:23:52.563Z,-6.14
2022-12-18T11:26:22.597Z,-6.33
2022-12-18T11:28:52.799Z,-6.23
2022-12-18T11:31:27.477Z,-6.49
2022-12-18T11:36:49.578Z,-6.51
2022-12-18T11:39:20.477Z,-6.52
2022-12-18T11:42:12.682Z,-6.60
2022-12-18T11:44:46.774Z,-6.62
2022-12-18T11:47:18.319Z,-6.74
2022-12-18T11:49:51.248Z,-6.58
2022-12-18T11:52:20.940Z,-6.64
2022-12-18T11:54:52.768Z,-6.77
2022-12-18T11:57:35.904Z,-6.64
2022-12-18T12:00:12.157Z,-6.51
2022-12-18T12:03:07.971Z,-6.37
2022-12-18T12:05:48.556Z,-6.21
2022-12-18T12:08:24.028Z,-6.28
2022-12-18T12:11:02.141Z,-6.22
2022-12-18T12:13:44.246Z,-6.20
2022-12-18T12:16:19.303Z,-6.18
2022-12-18T12:18:59.763Z,-6.30
2022-12-18T12:21:34.268Z,-6.20
2022-12-18T12:24:09.041Z,-6.08
2022-12-18T12:26:46.167Z,-6.06
2022-12-18T12:29:32.089Z,-6.05
2022-12-18T12:32:13.276Z,-6.08
2022-12-18T12:34:52.665Z,-6.33
2022-12-18T12:37:38.215Z,-6.41
2022-12-18T12:40:26.811Z,-6.37
2022-12-18T12:43:16.131Z,-6.40
2022-12-18T12:45:50.228Z,-6.54
2022-12-18T12:48:25.568Z,-6.69
2022-12-18T12:50:54.483Z,-6.72
2022-12-18T12:53:28.070Z,-6.80
2022-12-18T12:55:55.775Z,-6.86
2022-12-18T12:58:33.276Z,-6.86
2022-12-18T13:01:18.476Z,-6.88
2022-12-18T13:03:59.681Z,-6.91
2022-12-18T13:09:26.138Z,-6.86
2022-12-18T13:12:11.553Z,-6.81
2022-12-18T13:14:41.062Z,-6.84
2022-12-18T13:17:34.376Z,-6.98
2022-12-18T13:20:12.169Z,-6.99
2022-12-18T13:22:43.016Z,-7.03
2022-12-18T13:25:30.263Z,-7.16
2022-12-18T13:28:02.839Z,-7.12
2022-12-18T13:30:50.863Z,-7.20
2022-12-18T13:34:23.908Z,-7.09
2022-12-18T13:36:34.515Z,-7.07
2022-12-18T13:39:30.238Z,-7.09
2022-12-18T13:42:55.544Z,-7.13
2022-12-18T13:45:46.632Z,-7.13
2022-12-18T13:48:19.516Z,-7.03
2022-12-18T13:50:54.038Z,-6.91
2022-12-18T13:53:24.548Z,-6.89
2022-12-18T13:55:52.714Z,-7.07
2022-12-18T13:58:20.126Z,-7.03
2022-12-18T14:00:47.034Z,-7.17
2022-12-18T14:03:22.452Z,-7.21
2022-12-18T14:05:57.184Z,-7.21
2022-12-18T14:08:35.913Z,-7.17
2022-12-18T14:11:05.320Z,-6.71
2022-12-18T14:13:35.535Z,-6.63
2022-12-18T14:16:04.515Z,-6.92
2022-12-18T14:18:40.233Z,-7.03
2022-12-18T14:21:19.393Z,-7.14
2022-12-18T14:23:46.397Z,-7.07
2022-12-18T14:26:25.519Z,-7.12
2022-12-18T14:28:52.563Z,-7.15
2022-12-18T14:31:20.716Z,-7.17
2022-12-18T14:33:47.611Z,-7.10
2022-12-18T14:36:19.568Z,-7.11
2022-12-18T14:38:50.850Z,-7.03
2022-12-18T14:41:19.698Z,-7.07
2022-12-18T14:43:49.082Z,-7.01
2022-12-18T14:46:35.527Z,-6.97
2022-12-18T14:49:05.516Z,-6.93
2022-12-18T14:51:35.319Z,-6.89
2022-12-18T14:54:04.686Z,-6.89
2022-12-18T14:56:34.401Z,-6.85
2022-12-18T14:59:03.129Z,-6.94
2022-12-18T15:01:33.770Z,-6.84
2022-12-18T15:04:02.636Z,-6.94
2022-12-18T15:06:35.041Z,-6.87
2022-12-18T15:09:04.440Z,-6.84
2022-12-18T15:11:47.218Z,-6.84
2022-12-18T15:14:35.991Z,-6.76
2022-12-18T15:17:06.869Z,-6.73
2022-12-18T15:19:38.459Z,-6.78
2022-12-18T15:22:25.979Z,-6.75
2022-12-18T15:24:53.445Z,-6.77
2022-12-18T15:27:22.978Z,-6.80
2022-12-18T15:30:02.175Z,-6.77
2022-12-18T15:32:28.945Z,-6.66
2022-12-18T15:35:04.309Z,-6.70
2022-12-18T15:37:32.336Z,-6.71
2022-12-18T15:39:59.058Z,-6.71
2022-12-18T15:42:44.469Z,-6.74
2022-12-18T15:45:13.875Z,-6.44
2022-12-18T15:47:40.922Z,-6.47
2022-12-18T15:50:08.817Z,-6.58
2022-12-18T15:52:40.722Z,-6.65
2022-12-18T15:55:31.216Z,-6.65
2022-12-18T15:57:58.029Z,-6.66
2022-12-18T16:00:24.789Z,-6.67
2022-12-18T16:02:51.828Z,-6.67
2022-12-18T16:05:21.213Z,-6.64
2022-12-18T16:07:49.568Z,-6.62
2022-12-18T16:10:16.679Z,-6.65
2022-12-18T16:12:43.884Z,-6.61
2022-12-18T16:15:15.316Z,-6.61
2022-12-18T16:17:44.768Z,-6.62
2022-12-18T16:20:15.983Z,-6.53
2022-12-18T16:22:47.246Z,-6.51
2022-12-18T16:25:20.180Z,-6.49
2022-12-18T16:27:47.071Z,-6.46
2022-12-18T16:30:16.348Z,-6.41
2022-12-18T16:32:43.334Z,-6.40
2022-12-18T16:35:12.304Z,-6.38
2022-12-18T16:37:39.405Z,-6.41
2022-12-18T16:40:10.934Z,-6.32
2022-12-18T16:42:41.303Z,-6.29
2022-12-18T16:45:10.850Z,-6.30
2022-12-18T16:47:37.955Z,-6.29
2022-12-18T16:50:05.950Z,-6.30
2022-12-18T16:52:42.785Z,-6.30
2022-12-18T16:55:10.041Z,-6.25
2022-12-18T16:57:37.651Z,-6.19
2022-12-18T17:00:06.289Z,-6.17
2022-12-18T17:02:33.759Z,-6.12
2022-12-18T17:05:01.209Z,-6.08
2022-12-18T17:07:28.991Z,-5.95
2022-12-18T17:10:06.892Z,-5.89
2022-12-18T17:12:34.498Z,-5.96
2022-12-18T17:15:01.174Z,-5.88
2022-12-18T17:17:28.014Z,-5.85
2022-12-18T17:19:57.487Z,-5.71
2022-12-18T17:22:24.256Z,-5.36
2022-12-18T17:24:51.227Z,-5.61
2022-12-18T17:27:21.971Z,-5.63
2022-12-18T17:29:49.220Z,-5.72
2022-12-18T17:32:16.237Z,-5.77
2022-12-18T17:34:42.984Z,-5.76
2022-12-18T17:37:09.696Z,-5.76
2022-12-18T17:39:36.619Z,-5.76
2022-12-18T17:42:03.833Z,-5.67
2022-12-18T17:44:34.442Z,-5.72
2022-12-18T17:47:01.415Z,-5.78
2022-12-18T17:49:28.580Z,-5.78
2022-12-18T17:51:55.389Z,-5.79
2022-12-18T17:54:22.271Z,-5.82
2022-12-18T17:56:49.067Z,-5.78
2022-12-18T17:59:16.460Z,-5.72
2022-12-18T18:01:45.622Z,-5.63
2022-12-18T18:04:13.226Z,-5.60
2022-12-18T18:06:39.991Z,-5.62
2022-12-18T18:09:06.742Z,-5.56
2022-12-18T18:12:01.375Z,-5.54
2022-12-18T18:14:28.433Z,-5.60
2022-12-18T18:16:56.525Z,-5.57
2022-12-18T18:19:25.874Z,-5.59
2022-12-18T18:21:53.691Z,-5.55
2022-12-18T18:24:23.705Z,-5.47
2022-12-18T18:26:50.949Z,-5.36
2022-12-18T18:29:21.620Z,-5.31
2022-12-18T18:31:48.833Z,-5.30
2022-12-18T18:34:18.274Z,-5.36
2022-12-18T18:36:46.208Z,-5.39
2022-12-18T18:39:13.663Z,-5.37
2022-12-18T18:41:40.487Z,-5.38
2022-12-18T18:44:10.085Z,-5.35
2022-12-18T18:46:36.818Z,-5.23
2022-12-18T18:49:04.038Z,-5.01
2022-12-18T18:51:35.014Z,-5.05
2022-12-18T18:54:02.526Z,-5.06
2022-12-18T18:59:16.070Z,-5.17
2022-12-18T19:01:43.208Z,-5.21
2022-12-18T19:04:10.842Z,-5.22
2022-12-18T19:06:39.704Z,-5.20
2022-12-18T19:09:07.416Z,-5.18
2022-12-18T19:11:52.831Z,-5.18
2022-12-18T19:14:20.321Z,-5.28
2022-12-18T19:16:46.951Z,-5.27
2022-12-18T19:19:13.742Z,-5.21
2022-12-18T19:21:41.893Z,-5.07
2022-12-18T19:24:10.257Z,-5.07
2022-12-18T19:26:37.521Z,-5.04
2022-12-18T19:29:05.897Z,-5.00
2022-12-18T19:31:36.013Z,-4.99
2022-12-18T19:34:04.181Z,-5.01
2022-12-18T19:36:32.299Z,-5.04
2022-12-18T19:39:01.995Z,-5.09
2022-12-18T19:41:32.830Z,-5.12
2022-12-18T19:43:59.921Z,-5.14
2022-12-18T19:46:28.282Z,-5.12
2022-12-18T19:48:55.017Z,-5.09
2022-12-18T19:51:24.939Z,-5.16
2022-12-18T19:53:58.150Z,-5.13
2022-12-18T19:56:27.963Z,-5.11
2022-12-18T19:58:55.347Z,-5.19
2022-12-18T20:01:24.884Z,-5.26
2022-12-18T20:03:54.509Z,-5.23
2022-12-18T20:06:28.045Z,-5.19
2022-12-18T20:09:00.699Z,-5.21
2022-12-18T20:11:33.391Z,-5.20
2022-12-18T20:14:04.378Z,-5.22
2022-12-18T20:16:31.256Z,-5.24
2022-12-18T20:19:01.350Z,-5.28
2022-12-18T20:21:29.495Z,-5.30
2022-12-18T20:23:56.342Z,-5.28
2022-12-18T20:26:23.167Z,-5.27
2022-12-18T20:28:51.785Z,-5.23
2022-12-18T20:31:18.582Z,-5.28
2022-12-18T20:33:47.699Z,-5.26
2022-12-18T20:36:21.221Z,-5.30
2022-12-18T20:38:50.178Z,-5.33
2022-12-18T20:41:19.411Z,-5.34
2022-12-18T20:43:46.478Z,-5.31
2022-12-18T20:46:16.810Z,-5.37
2022-12-18T20:48:45.129Z,-5.35
2022-12-18T20:51:14.545Z,-5.43
2022-12-18T20:53:42.081Z,-5.28
2022-12-18T20:56:11.899Z,-5.32
2022-12-18T20:58:38.844Z,-5.39
2022-12-18T21:01:08.081Z,-5.41
2022-12-18T21:03:36.900Z,-5.33
2022-12-18T21:06:04.434Z,-5.22
2022-12-18T21:08:31.842Z,-5.25
2022-12-18T21:11:32.465Z,-5.21
2022-12-18T21:13:59.977Z,-5.24
2022-12-18T21:16:27.195Z,-5.02
2022-12-18T21:18:55.321Z,-4.96
2022-12-18T21:21:26.535Z,-5.04
2022-12-18T21:23:53.735Z,-5.12
2022-12-18T21:26:23.431Z,-5.13
2022-12-18T21:28:54.210Z,-5.10
2022-12-18T21:31:22.499Z,-5.12
2022-12-18T21:33:49.268Z,-5.13
2022-12-18T21:36:20.098Z,-5.12
2022-12-18T21:38:46.847Z,-5.16
2022-12-18T21:41:36.302Z,-5.20
2022-12-18T21:44:05.706Z,-5.19
2022-12-18T21:46:33.253Z,-5.18
2022-12-18T21:49:00.522Z,-5.04
2022-12-18T21:51:28.828Z,-5.01
2022-12-18T21:53:55.584Z,-5.07
2022-12-18T21:56:22.407Z,-5.21
2022-12-18T21:58:55.397Z,-5.25
2022-12-18T22:01:23.870Z,-5.20
2022-12-18T22:03:50.625Z,-5.21
2022-12-18T22:06:17.384Z,-5.22
2022-12-18T22:08:45.498Z,-5.21
2022-12-18T22:11:13.163Z,-5.18
2022-12-18T22:13:39.872Z,-5.21
2022-12-18T22:16:07.210Z,-5.25
2022-12-18T22:18:33.907Z,-5.22
2022-12-18T22:21:01.566Z,-5.29
2022-12-18T22:23:28.340Z,-5.27
2022-12-18T22:25:56.971Z,-5.33
2022-12-18T22:28:42.351Z,-5.32
2022-12-18T22:31:09.730Z,-5.32
2022-12-18T22:33:36.373Z,-5.25
2022-12-18T22:36:07.373Z,-5.21
2022-12-18T22:38:34.398Z,-5.19
2022-12-18T22:41:02.383Z,-5.19
2022-12-18T22:43:29.187Z,-5.13
2022-12-18T22:45:55.905Z,-5.11
2022-12-18T22:48:22.781Z,-5.14
2022-12-18T22:50:49.591Z,-5.17
2022-12-18T22:53:17.751Z,-5.12
2022-12-18T22:55:44.428Z,-5.07
2022-12-18T22:58:12.353Z,-5.17
2022-12-18T23:00:39.987Z,-5.16
2022-12-18T23:03:07.143Z,-5.14
2022-12-18T23:05:34.048Z,-5.13
2022-12-18T23:08:00.797Z,-5.14
2022-12-18T23:10:27.897Z,-5.13
2022-12-18T23:12:54.518Z,-5.14
2022-12-18T23:15:23.539Z,-5.11
2022-12-18T23:17:56.123Z,-5.09
2022-12-18T23:20:22.727Z,-4.99
2022-12-18T23:22:49.368Z,-4.99
2022-12-18T23:25:16.173Z,-4.97
2022-12-18T23:27:42.862Z,-4.99
2022-12-18T23:30:10.654Z,-4.93
2022-12-18T23:32:38.893Z,-4.93
2022-12-18T23:35:06.720Z,-4.98
2022-12-18T23:37:58.296Z,-4.96
2022-12-18T23:40:22.063Z,-5.00
2022-12-18T23:42:48.718Z,-5.03
2022-12-18T23:45:15.879Z,-5.02
2022-12-18T23:47:51.007Z,-5.06
2022-12-18T23:50:18.162Z,-5.00
2022-12-18T23:52:44.799Z,-4.91
2022-12-18T23:55:11.416Z,-4.89
2022-12-18T23:57:38.062Z,-4.97
